Ana Sayfa
METAR-TAF:

METAR-TAF

Havaalanları :

Kimble County Airport

Junction, Teksas, Amerika Birleşik Devletleri

Enlem: 30-30-39N, Boylam: 099-45-59W, yükseklik: 527 m

Güncel hava durumu gözlemi

Rapor saat 07:51 UTC de 1 saat ve 0 dakika önce yapıldı.
Rüzgar batı/kuzeybatıdan 4 kt
Sıcaklık 3°C
Nem 81%
Basınç 1019 hPa
Görüş mesafesi: 16.1 km
Açık gökyüzü

METAR: KJCT 290751Z AUTO 30004KT 10SM CLR 03/00 A3009 RMK AO2 SLP176 T00330000

Saat: 02:51 (08:51 UTC)

Tahmin

Rapor saat 05:20 UTC de 3 saat ve 31 dakika önce yapıldı.
Ayın 29'si saat 06 UTC'den ayın 30'si saat 06 UTC'ye kadar geçerli Tahmin
Rüzgar değişken yönden 4 kt
Görüş mesafesi: 10 km
Açık gökyüzü

TAF: KJCT 290520Z 2906/3006 VRB04KT P6SM SKC

4.000'den fazla havaalanı için hava durumu gözlemleri ve tahminleri (METAR ve TAF raporları).

Kullanılabilir istasyonlar harita üzerinde sarı ve kırmızı noktalarla gösterilir.

İstasyonun adını görmek için fareyi noktanın üzerinde gezdirin.

Sonrasında hava gözlem ve tahminlerini görmek için tıklayın.

Haritayı değiştirmek için: yaklaştırmak için siyah artı işaretli yeşil düğmeye ve uzaklaştırmak için de eksi işaretli düğmeye hızla tıklayın; bitişik haritalar için yeşil okları kullanın.


METAR-TAF: